Auburn, Georgia
Current Conditions -  °F | °C
As of 10:55 PM on Sunday 23 Nov 2014 (Local Time) from KWDR Reporting Station
Haze Haze  
Wind Chill: 54°   Ceiling: 2000
Heat Index: 54°   Visibility: 5mi
Dew Point: 54°   Wind: 0mph
Humidity: 100%   Direction: NA
Pressure: 29.79"   Gusts: NA
Location:  34.01°N, 83.83°W
Report Text: KWDR 240355Z AUTO 00000KT 5SM BR SCT013 OVC020 12/12 A2979 RMK AO2 LTG DSNT SE T01240124
Loading
Personal Weather Stations






























Interactive Weather Map New forecast layout! Learn more

10-Day Weather Forecast

Advertisements
Track Severe Weather on mobile